• Join FlightAware (Why Join?)
  • Login
  • US Flag 
08:35PM EDT


 

Airport Tracker/Info


-or-


 

Live Flight TrackerFlight Track Log ✈ SWA3993 ✈ 31-Dec-2012 ✈ KSAT - KLAS

Flight Track Log - Related Links

Times and Time Zones

All times are in EST time to prevent confusion due to time zone crossing. See the SWA3993 flight status page for this flight to view local times or setup timezone preferences in your user account.

Time Position Orientation Groundspeed Altitude Reporting Facility
EST Latitude Longitude Course Direction KTS MPH feet Rate Location/Type
08:04PM 29.5442 -98.4500 51° Northeast 158 182 1,700  Level Houston Center
08:05PM 29.5622 -98.4247 51° Northeast 163 188 2,700 1,680 Climbing Houston Center
08:06PM 29.6181 -98.3928 26° Northeast 257 296 4,500 2,400 Climbing Houston Center
08:07PM 29.6822 -98.4422 326° Northwest 283 326 7,700 3,300 Climbing Houston Center
08:07PM 29.7092 -98.4869 305° West 302 348 10,000 2,820 Climbing Houston Center
08:08PM 29.7569 -98.5739 302° West 313 360 12,400 2,640 Climbing Houston Center
08:09PM 29.8106 -98.6683 303° West 340 391 15,400 3,120 Climbing Houston Center
08:10PM 29.8678 -98.7681 304° West 361 415 18,700 2,640 Climbing Houston Center
08:11PM 29.9294 -98.8656 306° West 372 428 20,700 2,400 Climbing Houston Center
08:12PM 30.0014 -98.9639 310° West 391 450 23,600 2,400 Climbing Houston Center
08:13PM 30.0583 -99.0686 302° West 391 450 25,500 2,340 Climbing Houston Center
08:14PM 30.1022 -99.1797 295° West 385 443 28,300 1,980 Climbing Houston Center
08:15PM 30.1522 -99.2892 298° West 380 437 29,500 1,080 Climbing Houston Center
08:16PM 30.2000 -99.4056 295° West 390 449 30,500 900 Climbing Houston Center
08:17PM 30.2492 -99.5267 295° West 407 468 31,400 1,320 Climbing Houston Center
08:18PM 30.3025 -99.6511 296° West 420 483 33,200 1,980 Climbing Houston Center
08:19PM 30.3492 -99.7772 293° West 425 489 35,400 1,860 Climbing Houston Center
08:20PM 30.3967 -99.8844 297° West 425 489 36,900 1,260 Climbing Houston Center
08:21PM 30.4400 -99.9961 294° West 408 470 38,000 540 Climbing Houston Center
08:22PM 30.4892 -100.1108 296° West 396 456 38,000  Level Houston Center
08:23PM 30.5381 -100.2281 296° West 401 461 38,000  Level Houston Center
08:24PM 30.5847 -100.3453 295° West 401 461 38,000  Level Houston Center
08:25PM 30.6311 -100.4625 295° West 401 461 38,000  Level Houston Center
08:26PM 30.6781 -100.5753 296° West 395 455 38,000  Level Houston Center
08:27PM 30.7225 -100.6900 294° West 395 455 38,000  Level Houston Center
08:28PM 30.7689 -100.8050 295° West 395 455 38,000  Level Houston Center
08:29PM 30.8147 -100.9253 294° West 401 461 38,000  Level Houston Center
08:30PM 30.8614 -101.0358 296° West 396 456 38,000  Level Houston Center
08:31PM 30.9053 -101.1508 294° West 401 461 38,000  Level Houston Center
08:32PM 30.9494 -101.2639 295° West 395 455 38,000  Level Houston Center
08:33PM 30.9969 -101.3844 295° West 383 441 38,000  Level Houston Center
08:34PM 31.0150 -101.4244 298° West 387 445 38,000  Level Albuquerque Center
08:35PM 31.0594 -101.5364 295° West 384 442 38,000  Level Albuquerque Center
08:36PM 31.1025 -101.6486 294° West 381 438 38,000  Level Albuquerque Center
08:37PM 31.1456 -101.7594 294° West 378 435 38,000  Level Albuquerque Center
08:38PM 31.1878 -101.8692 294° West 374 430 38,000  Level Albuquerque Center
08:38PM 31.2119 -101.9336 294° West 377 434 38,000  Level Albuquerque Center
08:39PM 31.2558 -102.0483 294° West 384 442 38,000  Level Albuquerque Center
08:40PM 31.2992 -102.1611 294° West 382 440 38,000  Level Albuquerque Center
08:41PM 31.3511 -102.2958 294° West 380 437 38,000  Level Albuquerque Center
08:42PM 31.3942 -102.4094 294° West 381 438 38,000  Level Albuquerque Center
08:43PM 31.4372 -102.5225 294° West 380 437 38,000  Level Albuquerque Center
08:44PM 31.4764 -102.6247 294° West 377 434 38,000  Level Albuquerque Center
08:45PM 31.5194 -102.7378 294° West 379 436 38,000  Level Albuquerque Center
08:47PM 31.5700 -102.8739 294° West 380 437 38,000  Level Albuquerque Center
08:48PM 31.6131 -102.9869 294° West 381 438 38,000  Level Albuquerque Center
08:49PM 31.6547 -103.0992 294° West 379 436 38,000  Level Albuquerque Center
08:50PM 31.6958 -103.2103 294° West 374 430 38,000  Level Albuquerque Center
08:51PM 31.7378 -103.3228 294° West 375 432 38,000  Level Albuquerque Center
08:52PM 31.7794 -103.4358 293° West 376 433 38,000  Level Albuquerque Center
08:53PM 31.8256 -103.5603 294° West 377 434 38,000  Level Albuquerque Center
08:54PM 31.8672 -103.6731 294° West 376 433 38,000  Level Albuquerque Center
08:55PM 31.9089 -103.7861 293° West 377 434 38,000  Level Albuquerque Center
08:56PM 31.9514 -103.8986 294° West 377 434 38,000  Level Albuquerque Center
08:57PM 31.9922 -104.0097 293° West 373 429 38,000  Level Albuquerque Center
08:58PM 32.0350 -104.1292 293° West 371 427 38,000  Level Albuquerque Center
08:59PM 32.0750 -104.2383 293° West 368 423 38,000  Level Albuquerque Center
09:00PM 32.1150 -104.3497 293° West 369 425 38,000  Level Albuquerque Center
09:01PM 32.1556 -104.4603 293° West 369 425 38,000  Level Albuquerque Center
09:02PM 32.1950 -104.5719 293° West 370 426 38,000  Level Albuquerque Center
09:03PM 32.2358 -104.6858 293° West 373 429 38,000  Level Albuquerque Center
09:04PM 32.2753 -104.7944 293° West 369 425 38,000  Level Albuquerque Center
09:05PM 32.3169 -104.9108 293° West 380 437 38,000  Level Albuquerque Center
09:06PM 32.3653 -105.0497 292° West 382 440 38,000  Level Albuquerque Center
09:07PM 32.4056 -105.1622 293° West 377 434 38,000  Level Albuquerque Center
09:08PM 32.4444 -105.2794 291° West 380 437 38,000  Level Albuquerque Center
09:09PM 32.4850 -105.3964 292° West 383 441 38,000  Level Albuquerque Center
09:10PM 32.5264 -105.5133 293° West 385 443 38,000  Level Albuquerque Center
09:11PM 32.5675 -105.6297 293° West 385 443 38,000  Level Albuquerque Center
09:12PM 32.6075 -105.7461 292° West 384 442 38,000  Level Albuquerque Center
09:13PM 32.6469 -105.8631 292° West 383 441 38,000  Level Albuquerque Center
09:14PM 32.6867 -105.9750 293° West 378 435 38,000  Level Albuquerque Center
09:15PM 32.7258 -106.0908 292° West 376 433 38,000 -60 Level Albuquerque Center
09:16PM 32.7717 -106.2253 292° West 373 429 37,900 -60 Descending Albuquerque Center
09:17PM 32.8125 -106.3428 292° West 377 434 37,900  Level Albuquerque Center
09:18PM 32.8533 -106.4606 292° West 383 441 38,000  Climbing Albuquerque Center
09:19PM 32.8919 -106.5764 292° West 382 440 38,000  Level Albuquerque Center
09:20PM 32.9311 -106.6961 291° West 387 445 38,000  Level Albuquerque Center
09:21PM 32.9728 -106.8197 292° West 399 459 38,000  Level Albuquerque Center
09:22PM 33.0139 -106.9428 292° West 403 464 38,000  Level Albuquerque Center
09:23PM 33.0542 -107.0628 292° West 399 459 38,000  Level Albuquerque Center
09:24PM 33.1022 -107.2086 292° West 397 457 38,000  Level Albuquerque Center
09:25PM 33.1417 -107.3289 291° West 395 455 38,000  Level Albuquerque Center
09:26PM 33.1817 -107.4503 292° West 396 456 38,000  Level Albuquerque Center
09:27PM 33.2217 -107.5708 292° West 395 455 38,000  Level Albuquerque Center
09:28PM 33.2600 -107.6911 291° West 392 451 38,000  Level Albuquerque Center
09:29PM 33.2997 -107.8114 292° West 391 450 38,000  Level Albuquerque Center
09:30PM 33.3389 -107.9286 292° West 387 445 38,000  Level Albuquerque Center
09:31PM 33.3764 -108.0467 291° West 383 441 38,000  Level Albuquerque Center
09:32PM 33.4217 -108.1883 291° West 386 444 38,000  Level Albuquerque Center
09:33PM 33.4600 -108.3081 291° West 389 448 38,000  Level Albuquerque Center
09:34PM 33.4989 -108.4286 291° West 392 451 38,000  Level Albuquerque Center
09:35PM 33.5378 -108.5519 291° West 398 458 38,000  Level Albuquerque Center
09:36PM 33.5778 -108.6767 291° West 404 465 38,000  Level Albuquerque Center
09:37PM 33.6178 -108.8017 291° West 406 467 38,000  Level Albuquerque Center
09:38PM 33.6567 -108.9286 290° West 409 471 38,000  Level Albuquerque Center
09:40PM 33.7050 -109.0806 291° West 411 473 38,000  Level Albuquerque Center
09:41PM 33.7444 -109.2083 290° West 412 474 38,000  Level Albuquerque Center
09:42PM 33.7847 -109.3367 291° West 414 476 38,000  Level Albuquerque Center
09:43PM 33.8233 -109.4617 290° West 411 473 38,000  Level Albuquerque Center
09:44PM 33.8608 -109.5847 290° West 403 464 38,000  Level Albuquerque Center
09:45PM 33.8983 -109.7100 290° West 401 461 38,000  Level Albuquerque Center
09:46PM 33.9450 -109.8589 291° West 401 461 38,000  Level Albuquerque Center
09:47PM 33.9825 -109.9844 290° West 402 463 38,000  Level Albuquerque Center
09:48PM 34.0200 -110.1125 289° West 406 467 38,000  Level Albuquerque Center
09:49PM 34.0592 -110.2378 291° West 405 466 38,000  Level Albuquerque Center
09:50PM 34.0967 -110.3650 290° West 406 467 38,000  Level Albuquerque Center
09:51PM 34.1331 -110.4958 289° West 413 475 38,000  Level Albuquerque Center
09:52PM 34.1689 -110.6239 289° West 409 471 38,000  Level Albuquerque Center
09:53PM 34.2142 -110.7717 290° West 408 470 38,000  Level Albuquerque Center
09:54PM 34.2517 -110.9003 289° West 408 470 38,000  Level Albuquerque Center
09:55PM 34.2889 -111.0283 289° West 407 468 38,000  Level Albuquerque Center
09:56PM 34.3258 -111.1564 289° West 406 467 38,000  Level Albuquerque Center
09:57PM 34.3628 -111.2836 289° West 404 465 38,000  Level Albuquerque Center
09:58PM 34.3994 -111.4106 289° West 403 464 38,000  Level Albuquerque Center
09:59PM 34.4369 -111.5383 290° West 404 465 38,000  Level Albuquerque Center
10:00PM 34.4725 -111.6678 288° West 406 467 38,000  Level Albuquerque Center
10:01PM 34.5172 -111.8225 289° West 408 470 38,000  Level Albuquerque Center
10:02PM 34.5539 -111.9531 289° West 410 472 38,000  Level Albuquerque Center
10:03PM 34.5914 -112.0853 289° West 414 476 38,000  Level Albuquerque Center
10:05PM 34.6700 -112.3450 290° West 412 474 38,000  Level Albuquerque Center
10:06PM 34.7208 -112.4722 296° West 409 471 38,000  Level Albuquerque Center
10:07PM 34.7681 -112.5956 295° West 404 465 38,000  Level Albuquerque Center
10:08PM 34.8139 -112.7186 294° West 401 461 38,000  Level Albuquerque Center
10:09PM 34.8608 -112.8422 295° West 401 461 38,000  Level Albuquerque Center
10:10PM 34.9067 -112.9656 294° West 400 460 38,000 -840 Level Albuquerque Center
10:11PM 34.9528 -113.0886 295° West 398 458 36,400 -2,280 Descending Albuquerque Center
10:12PM 34.9981 -113.2106 294° West 395 455 33,400 -2,880 Descending Albuquerque Center
10:13PM 35.0422 -113.3361 293° West 397 457 30,600 -2,040 Descending Albuquerque Center
10:14PM 35.0700 -113.4092 295° West 395 455 30,000 -360 Descending Los Angeles Center
10:15PM 35.1200 -113.5461 294° West 373 429 30,000 -60 Level Los Angeles Center
10:16PM 35.1617 -113.6606 294° West 369 425 29,900 -1,140 Descending Los Angeles Center
10:17PM 35.2028 -113.7736 294° West 367 422 27,700 -2,160 Descending Los Angeles Center
10:18PM 35.2428 -113.8825 294° West 358 412 25,600 -2,040 Descending Los Angeles Center
10:19PM 35.2967 -113.9686 307° West 347 399 23,600 -2,040 Descending Los Angeles Center
10:20PM 35.3675 -114.0342 323° Northwest 323 372 21,500 -1,980 Descending Los Angeles Center
10:21PM 35.4353 -114.0972 323° Northwest 310 357 19,600 -1,740 Descending Los Angeles Center
10:22PM 35.5083 -114.1644 323° Northwest 312 359 17,700 -2,160 Descending Los Angeles Center
10:23PM 35.6094 -114.2597 323° Northwest 329 379 14,800 -2,640 Descending Los Angeles Center
10:24PM 35.6575 -114.3042 323° Northwest 331 381 13,300 -2,280 Descending Los Angeles Center
10:24PM 35.6825 -114.3278 323° Northwest 330 380 12,500 -1,440 Descending Los Angeles Center
10:24PM 35.7064 -114.3483 325° Northwest 324 373 12,300 -1,020 Descending Los Angeles Center
10:25PM 35.7486 -114.3917 320° Northwest 315 362 11,500 -1,080 Descending Los Angeles Center
10:26PM 35.7736 -114.4158 322° Northwest 290 334 11,100 -1,020 Descending Los Angeles Center
10:26PM 35.8056 -114.4519 317° Northwest 279 321 10,500 -1,140 Descending Los Angeles Center
10:27PM 35.8331 -114.4783 322° Northwest 263 303 10,000 -1,020 Descending Los Angeles Center
10:27PM 35.8603 -114.5089 318° Northwest 262 302 9,500 -960 Descending Los Angeles Center
10:28PM 35.9328 -114.5856 319° Northwest 269 310 8,300 -720 Descending Los Angeles Center
10:29PM 35.9642 -114.6681 295° West 269 310 8,000 -240 Descending Los Angeles Center
10:30PM 35.9975 -114.7500 297° West 256 295 7,900 -420 Descending Los Angeles Center
10:31PM 36.0156 -114.7956 296° West 239 275 7,300 -900 Descending Los Angeles Center
10:32PM 36.0239 -114.8211 292° West 211 243 6,900 -720 Descending Los Angeles Center
10:32PM 36.0378 -114.8542 297° West 209 241 6,600 -600 Descending Los Angeles Center
10:33PM 36.0456 -114.8803 290° West 186 214 6,300 -900 Descending Los Angeles Center
10:33PM 36.0572 -114.9111 295° West 190 219 5,700 -1,080 Descending Los Angeles Center
10:34PM 36.0644 -114.9458 284° West 181 208 5,100 -1,320 Descending Los Angeles Center
10:34PM 36.0711 -114.9828 283° West 181 208 4,400 -1,080 Descending Los Angeles Center
10:35PM 36.0731 -115.0547 272° West 167 192 3,200 -900 Descending Los Angeles Center
10:36PM 36.0744 -115.0931 273° West 160 184 2,600 -660 Descending Los Angeles Center
10:37PM 36.0742 -115.1369 270° West 140 161 2,000 -300 Descending Los Angeles Center
10:38PM 36.0778 -115.1464 295° West 88 101 2,100  Climbing Los Angeles Center
10:39PM 36.0781 -115.1428 85° East 39 45 2,100  Level Los Angeles Center
10:40PM 36.0797 -115.1472 295° West 25 29 2,100  Level Los Angeles Center
10:41PM 36.0811 -115.1467 18° North 15 17 2,100  Level Los Angeles Center
10:42PM 36.0806 -115.1469 202° Southwest 6 7 2,100  Level Los Angeles Center
10:43PM 36.0808 -115.1467 39° Northeast 3 3 2,100  Level Los Angeles Center